Zuidhorn, Netherlands
Current Conditions -  °F | °C
As of 1:55 AM on Wednesday 22 Oct 2014 (Local Time) from EHGG Reporting Station
Broken Clouds Broken Clouds  
Wind Chill: 50°   Ceiling: 1500
Heat Index: 50°   Visibility: 6mi
Dew Point: 45°   Wind: 18mph
Humidity: 82%   Direction: 290°WNW
Pressure: 29.65"   Gusts: NA
Location:  53.25°N, 6.4°E
Report Text: EHGG 212355Z AUTO 29016KT 250V330 9999 BKN015CB SCT034 BKN04610/07 Q1004
Loading
Personal Weather Stations






























Interactive Weather Map
Tropical Storm Tracking
New forecast layout! Learn more

10-Day Weather Forecast

Advertisements
Track Severe Weather on mobile